createdAt,value
2018-07-12T00:00:07.019Z,63.26
2018-07-12T00:01:06.897Z,62.97
2018-07-12T00:02:06.804Z,62.49
2018-07-12T00:03:06.717Z,62.30
2018-07-12T00:04:06.618Z,62.12
2018-07-12T00:05:06.560Z,61.93
2018-07-12T00:06:06.434Z,61.16
2018-07-12T00:07:06.448Z,60.78
2018-07-12T00:08:06.247Z,60.30
2018-07-12T00:09:06.157Z,60.21
2018-07-12T00:10:06.096Z,59.74
2018-07-12T00:11:05.970Z,58.97
2018-07-12T00:12:05.878Z,58.87
2018-07-12T00:13:05.784Z,58.14
2018-07-12T00:14:05.786Z,58.14
2018-07-12T00:15:05.630Z,57.67
2018-07-12T00:16:05.504Z,57.38
2018-07-12T00:17:05.415Z,56.81
2018-07-12T00:18:05.321Z,56.43
2018-07-12T00:19:05.227Z,56.33
2018-07-12T00:20:05.167Z,56.52
2018-07-12T00:21:05.134Z,55.85
2018-07-12T00:22:04.953Z,55.85
2018-07-12T00:23:04.860Z,55.47
2018-07-12T00:24:04.767Z,55.09
2018-07-12T00:25:04.708Z,54.80
2018-07-12T00:26:04.579Z,54.43
2018-07-12T00:27:04.489Z,54.52
2018-07-12T00:28:04.505Z,53.95
2018-07-12T00:29:04.303Z,53.66
2018-07-12T00:30:04.249Z,53.95
2018-07-12T00:31:04.119Z,53.76
2018-07-12T00:32:04.028Z,53.38
2018-07-12T00:33:03.934Z,53.47
2018-07-12T00:34:03.840Z,52.71
2018-07-12T00:35:03.872Z,53.19
2018-07-12T00:36:03.655Z,52.90
2018-07-12T00:37:03.567Z,53.09
2018-07-12T00:38:03.474Z,52.90
2018-07-12T00:39:03.382Z,53.09
2018-07-12T00:40:03.317Z,52.61
2018-07-12T00:41:03.197Z,52.23
2018-07-12T00:42:03.199Z,52.42
2018-07-12T00:43:03.009Z,52.23
2018-07-12T00:44:02.920Z,52.33
2018-07-12T00:45:02.835Z,52.33
2018-07-12T00:46:02.765Z,52.04
2018-07-12T00:47:02.644Z,52.14
2018-07-12T00:48:02.552Z,52.23
2018-07-12T00:49:02.551Z,51.85
2018-07-12T00:50:02.370Z,51.85
2018-07-12T00:51:02.306Z,51.85
2018-07-12T00:52:02.185Z,52.14
2018-07-12T00:53:02.096Z,52.61
2018-07-12T00:54:02.000Z,52.14
2018-07-12T00:55:01.906Z,52.04
2018-07-12T00:56:01.936Z,52.04
2018-07-12T00:57:01.722Z,51.47
2018-07-12T00:58:01.631Z,51.66
2018-07-12T00:59:01.537Z,51.66
2018-07-12T01:00:04.710Z,51.56
2018-07-12T01:01:01.382Z,51.56
2018-07-12T01:02:01.260Z,51.56
2018-07-12T01:03:01.260Z,51.18
2018-07-12T01:04:01.076Z,51.66
2018-07-12T01:05:00.983Z,51.56
2018-07-12T01:06:00.924Z,51.47
2018-07-12T01:07:00.797Z,51.95
2018-07-12T01:08:00.735Z,51.95
2018-07-12T01:09:00.613Z,52.23
2018-07-12T01:10:00.617Z,52.14
2018-07-12T01:11:00.461Z,52.33
2018-07-12T01:12:00.344Z,52.52
2018-07-12T01:13:00.245Z,53.09
2018-07-12T01:14:00.154Z,53.19
2018-07-12T01:15:00.067Z,53.66
2018-07-12T01:16:00.014Z,53.47
2018-07-12T01:16:59.971Z,54.24
2018-07-12T01:17:59.790Z,54.33
2018-07-12T01:18:59.690Z,54.04
2018-07-12T01:19:59.603Z,54.52
2018-07-12T01:20:59.539Z,55.47
2018-07-12T01:21:59.414Z,55.28
2018-07-12T01:22:59.324Z,55.85
2018-07-12T01:23:59.240Z,56.24
2018-07-12T01:24:59.137Z,56.90
2018-07-12T01:25:59.084Z,57.28
2018-07-12T01:26:58.954Z,57.67
2018-07-12T01:27:58.862Z,57.76
2018-07-12T01:28:58.770Z,58.81
2018-07-12T01:29:58.678Z,58.24
2018-07-12T01:30:58.618Z,58.14
2018-07-12T01:31:58.495Z,58.43
2018-07-12T01:32:58.403Z,58.81
2018-07-12T01:33:58.312Z,58.91
2018-07-12T01:34:58.216Z,59.38
2018-07-12T01:35:58.162Z,59.48
2018-07-12T01:36:58.034Z,59.48
2018-07-12T01:37:57.941Z,59.48
2018-07-12T01:38:57.847Z,59.00
2018-07-12T01:39:57.761Z,59.09
2018-07-12T01:40:57.700Z,59.48
2018-07-12T01:41:57.572Z,59.57
2018-07-12T01:42:57.478Z,59.86
2018-07-12T01:43:57.386Z,59.86
2018-07-12T01:44:57.294Z,60.24
2018-07-12T01:45:57.238Z,60.24
2018-07-12T01:46:57.111Z,60.33
2018-07-12T01:47:57.019Z,60.81
2018-07-12T01:48:56.926Z,60.91
2018-07-12T01:49:56.831Z,60.81
2018-07-12T01:50:56.773Z,60.91
2018-07-12T01:51:56.647Z,60.72
2018-07-12T01:52:56.552Z,60.72
2018-07-12T01:53:56.462Z,60.62
2018-07-12T01:54:56.371Z,60.62
2018-07-12T01:55:56.311Z,60.81
2018-07-12T01:56:56.182Z,61.00
2018-07-12T01:57:56.094Z,60.52
2018-07-12T01:58:56.000Z,60.43
2018-07-12T01:59:55.908Z,60.43
2018-07-12T02:00:55.848Z,60.62
2018-07-12T02:01:55.724Z,60.43
2018-07-12T02:02:55.631Z,60.72
2018-07-12T02:03:55.538Z,60.52
2018-07-12T02:04:55.444Z,60.72
2018-07-12T02:05:55.384Z,61.38
2018-07-12T02:06:55.259Z,61.00
2018-07-12T02:07:55.169Z,61.57
2018-07-12T02:08:55.080Z,61.19
2018-07-12T02:09:54.985Z,61.10
2018-07-12T02:10:54.921Z,61.38
2018-07-12T02:11:54.799Z,61.48
2018-07-12T02:12:54.708Z,61.29
2018-07-12T02:13:54.616Z,61.48
2018-07-12T02:14:54.523Z,61.19
2018-07-12T02:15:54.432Z,60.91
2018-07-12T02:16:54.422Z,61.48
2018-07-12T02:17:54.248Z,61.19
2018-07-12T02:18:54.152Z,61.67
2018-07-12T02:19:54.062Z,61.57
2018-07-12T02:20:53.969Z,61.38
2018-07-12T02:21:53.910Z,60.91
2018-07-12T02:22:53.781Z,60.62
2018-07-12T02:23:53.690Z,60.62
2018-07-12T02:24:53.598Z,61.10
2018-07-12T02:25:53.505Z,61.10
2018-07-12T02:26:53.447Z,61.00
2018-07-12T02:27:53.321Z,61.10
2018-07-12T02:28:53.231Z,61.00
2018-07-12T02:29:53.136Z,61.19
2018-07-12T02:30:53.044Z,61.57
2018-07-12T02:31:52.978Z,61.19
2018-07-12T02:32:52.857Z,61.38
2018-07-12T02:33:52.764Z,60.81
2018-07-12T02:34:52.670Z,60.81
2018-07-12T02:35:52.582Z,61.29
2018-07-12T02:36:52.519Z,61.29
2018-07-12T02:37:52.396Z,62.15
2018-07-12T02:38:52.301Z,62.05
2018-07-12T02:39:52.211Z,62.05
2018-07-12T02:40:52.118Z,61.86
2018-07-12T02:41:52.055Z,62.05
2018-07-12T02:42:51.933Z,62.34
2018-07-12T02:43:51.837Z,62.43
2018-07-12T02:44:51.746Z,61.96
2018-07-12T02:45:51.659Z,62.15
2018-07-12T02:46:51.591Z,62.34
2018-07-12T02:47:51.473Z,62.43
2018-07-12T02:48:51.384Z,62.52
2018-07-12T02:49:51.284Z,62.62
2018-07-12T02:50:51.193Z,62.15
2018-07-12T02:51:51.128Z,62.24
2018-07-12T02:52:51.008Z,62.24
2018-07-12T02:53:50.921Z,62.52
2018-07-12T02:54:50.916Z,62.34
2018-07-12T02:55:50.735Z,62.52
2018-07-12T02:56:50.666Z,62.81
2018-07-12T02:57:50.545Z,62.81
2018-07-12T02:58:50.450Z,62.52
2018-07-12T02:59:50.373Z,62.52
2018-07-12T03:00:50.266Z,62.34
2018-07-12T03:01:50.208Z,62.81
2018-07-12T03:02:50.083Z,62.34
2018-07-12T03:03:49.988Z,62.24
2018-07-12T03:04:49.896Z,62.24
2018-07-12T03:05:49.805Z,62.24
2018-07-12T03:06:49.744Z,62.34
2018-07-12T03:07:49.618Z,61.96
2018-07-12T03:08:49.621Z,61.76
2018-07-12T03:09:49.438Z,61.76
2018-07-12T03:10:49.346Z,61.96
2018-07-12T03:11:49.285Z,62.34
2018-07-12T03:12:49.161Z,62.34
2018-07-12T03:13:49.064Z,62.05
2018-07-12T03:14:48.972Z,62.05
2018-07-12T03:15:48.973Z,62.15
2018-07-12T03:16:48.819Z,62.62
2018-07-12T03:17:48.699Z,62.05
2018-07-12T03:18:48.603Z,62.34
2018-07-12T03:19:48.514Z,62.15
2018-07-12T03:20:48.421Z,62.24
2018-07-12T03:21:48.360Z,62.34
2018-07-12T03:22:48.327Z,61.96
2018-07-12T03:23:48.140Z,62.52
2018-07-12T03:24:48.048Z,62.52
2018-07-12T03:25:47.959Z,62.52
2018-07-12T03:26:47.899Z,61.96
2018-07-12T03:27:47.771Z,62.34
2018-07-12T03:28:47.683Z,62.15
2018-07-12T03:29:47.683Z,62.15
2018-07-12T03:30:47.493Z,62.27
2018-07-12T03:31:47.436Z,61.70
2018-07-12T03:32:47.313Z,61.70
2018-07-12T03:33:47.221Z,61.60
2018-07-12T03:34:47.132Z,61.80
2018-07-12T03:35:47.036Z,62.08
2018-07-12T03:36:47.062Z,61.60
2018-07-12T03:37:46.849Z,62.27
2018-07-12T03:38:46.761Z,62.18
2018-07-12T03:39:46.667Z,62.27
2018-07-12T03:40:46.577Z,62.65
2018-07-12T03:41:46.513Z,62.46
2018-07-12T03:42:46.390Z,62.37
2018-07-12T03:43:46.389Z,62.37
2018-07-12T03:44:46.207Z,61.99
2018-07-12T03:45:46.113Z,62.37
2018-07-12T03:46:46.024Z,62.56
2018-07-12T03:47:45.963Z,62.18
2018-07-12T03:48:45.835Z,62.08
2018-07-12T03:49:45.746Z,62.56
2018-07-12T03:50:45.742Z,62.56
2018-07-12T03:51:45.565Z,62.46
2018-07-12T03:52:45.502Z,62.37
2018-07-12T03:53:45.378Z,62.18
2018-07-12T03:54:45.284Z,62.27
2018-07-12T03:55:45.192Z,62.75
2018-07-12T03:56:45.107Z,62.37
2018-07-12T03:57:45.135Z,62.56
2018-07-12T03:58:44.923Z,62.65
2018-07-12T03:59:44.826Z,62.94
2018-07-12T04:00:44.733Z,63.04
2018-07-12T04:01:45.167Z,62.84
2018-07-12T04:02:44.584Z,63.42
2018-07-12T04:03:44.457Z,63.32
2018-07-12T04:04:44.462Z,63.23
2018-07-12T04:05:44.275Z,63.23
2018-07-12T04:06:44.184Z,63.04
2018-07-12T04:07:44.123Z,63.13
2018-07-12T04:08:43.999Z,63.42
2018-07-12T04:09:43.909Z,63.83
2018-07-12T04:10:43.814Z,64.21
2018-07-12T04:11:43.823Z,63.83
2018-07-12T04:12:43.667Z,64.02
2018-07-12T04:13:43.541Z,63.92
2018-07-12T04:14:43.450Z,63.73
2018-07-12T04:15:43.357Z,64.02
2018-07-12T04:16:43.268Z,63.73
2018-07-12T04:17:43.208Z,63.83
2018-07-12T04:18:43.172Z,64.40
2018-07-12T04:19:42.991Z,64.31
2018-07-12T04:20:42.897Z,64.59
2018-07-12T04:21:42.806Z,65.17
2018-07-12T04:22:42.748Z,64.97
2018-07-12T04:23:42.624Z,65.36
2018-07-12T04:24:42.531Z,65.55
2018-07-12T04:25:42.439Z,65.83
2018-07-12T04:26:42.349Z,67.07
2018-07-12T04:27:42.289Z,67.49
2018-07-12T04:28:42.172Z,67.68
2018-07-12T04:29:42.076Z,68.82
2018-07-12T04:30:41.985Z,69.49
2018-07-12T04:31:41.893Z,70.36
2018-07-12T04:32:41.838Z,71.02
2018-07-12T04:33:41.710Z,71.12
2018-07-12T04:34:41.661Z,71.78
2018-07-12T04:35:41.526Z,72.64
2018-07-12T04:36:41.437Z,73.22
2018-07-12T04:37:41.443Z,73.88
2018-07-12T04:38:41.256Z,74.55
2018-07-12T04:39:41.162Z,75.32
2018-07-12T04:40:41.072Z,76.37
2018-07-12T04:41:40.984Z,77.42
2018-07-12T04:42:40.920Z,77.13
2018-07-12T04:43:40.801Z,78.18
2018-07-12T04:44:40.706Z,79.52
2018-07-12T04:45:40.616Z,80.19
2018-07-12T04:46:40.527Z,80.95
2018-07-12T04:47:40.469Z,82.29
2018-07-12T04:48:40.344Z,84.14
2018-07-12T04:49:40.251Z,85.63
2018-07-12T04:50:40.164Z,87.29
2018-07-12T04:51:40.070Z,88.54
2018-07-12T04:52:40.011Z,90.83
2018-07-12T04:53:39.889Z,91.59
2018-07-12T04:54:39.798Z,92.26
2018-07-12T04:55:39.710Z,92.16
2018-07-12T04:56:39.619Z,92.64
2018-07-12T04:57:39.554Z,92.36
2018-07-12T04:58:39.438Z,93.12
2018-07-12T04:59:39.343Z,92.16
2018-07-12T05:00:39.256Z,92.64
2018-07-12T05:01:39.161Z,92.55
2018-07-12T05:02:39.106Z,92.45
2018-07-12T05:03:38.982Z,93.12
2018-07-12T05:04:38.890Z,92.36
2018-07-12T05:05:38.801Z,92.64
2018-07-12T05:06:38.715Z,92.36
2018-07-12T05:07:38.650Z,92.55
2018-07-12T05:08:38.535Z,93.31
2018-07-12T05:09:38.439Z,92.74
2018-07-12T05:10:38.349Z,93.60
2018-07-12T05:11:38.261Z,93.12
2018-07-12T05:12:38.198Z,92.55
2018-07-12T05:13:38.075Z,92.26
2018-07-12T05:14:37.984Z,92.07
2018-07-12T05:15:37.894Z,92.36
2018-07-12T05:16:37.804Z,92.07
2018-07-12T05:17:37.718Z,92.07
2018-07-12T05:18:37.653Z,92.26
2018-07-12T05:19:37.531Z,91.74
2018-07-12T05:20:37.442Z,91.78
2018-07-12T05:21:37.351Z,91.59
2018-07-12T05:22:37.261Z,92.21
2018-07-12T05:23:37.203Z,91.83
2018-07-12T05:24:37.082Z,92.41
2018-07-12T05:25:36.990Z,92.21
2018-07-12T05:26:36.898Z,92.41
2018-07-12T05:27:36.809Z,92.50
2018-07-12T05:28:36.747Z,92.41
2018-07-12T05:29:36.627Z,91.93
2018-07-12T05:30:36.534Z,92.41
2018-07-12T05:31:36.445Z,92.31
2018-07-12T05:32:36.354Z,91.45
2018-07-12T05:33:36.292Z,90.97
2018-07-12T05:34:36.201Z,91.45
2018-07-12T05:35:36.080Z,91.93
2018-07-12T05:36:35.989Z,91.55
2018-07-12T05:37:35.898Z,91.74
2018-07-12T05:38:35.835Z,91.74
2018-07-12T05:39:35.717Z,90.88
2018-07-12T05:40:35.629Z,91.83
2018-07-12T05:41:35.627Z,91.69
2018-07-12T05:42:35.445Z,91.55
2018-07-12T05:43:35.385Z,91.50
2018-07-12T05:44:35.263Z,92.16
2018-07-12T05:45:35.173Z,92.07
2018-07-12T05:46:35.122Z,92.45
2018-07-12T05:47:34.988Z,92.36
2018-07-12T05:48:34.931Z,93.21
2018-07-12T05:49:34.810Z,94.07
2018-07-12T05:50:34.720Z,93.50
2018-07-12T05:51:34.627Z,93.79
2018-07-12T05:52:34.537Z,94.74
2018-07-12T05:53:34.480Z,96.46
2018-07-12T05:54:34.355Z,96.61
2018-07-12T05:55:34.366Z,97.08
2018-07-12T05:56:34.177Z,97.85
2018-07-12T05:57:34.185Z,98.90
2018-07-12T05:58:34.038Z,98.61
2018-07-12T05:59:33.904Z,98.52
2018-07-12T06:00:33.813Z,98.33
2018-07-12T06:01:33.723Z,98.61
2018-07-12T06:02:33.725Z,98.61
2018-07-12T06:03:33.573Z,98.52
2018-07-12T06:04:33.457Z,99.66
2018-07-12T06:05:33.359Z,99.19
2018-07-12T06:06:33.271Z,99.99
2018-07-12T06:07:33.178Z,99.99
2018-07-12T06:08:33.117Z,99.99
2018-07-12T06:09:33.091Z,99.99
2018-07-12T06:10:32.911Z,99.99
2018-07-12T06:11:32.822Z,99.99
2018-07-12T06:12:32.729Z,99.99
2018-07-12T06:13:32.670Z,99.99
2018-07-12T06:14:32.550Z,99.99
2018-07-12T06:15:32.461Z,99.99
2018-07-12T06:16:32.459Z,99.99
2018-07-12T06:17:32.280Z,99.99
2018-07-12T06:18:32.251Z,99.99
2018-07-12T06:19:32.102Z,99.99
2018-07-12T06:20:32.013Z,99.99
2018-07-12T06:21:31.920Z,99.99
2018-07-12T06:22:31.835Z,99.99
2018-07-12T06:23:31.862Z,99.99
2018-07-12T06:24:31.660Z,99.99
2018-07-12T06:25:31.561Z,99.99
2018-07-12T06:26:31.472Z,99.99
2018-07-12T06:27:31.389Z,99.99
2018-07-12T06:28:31.322Z,99.99
2018-07-12T06:29:31.199Z,99.99
2018-07-12T06:30:31.199Z,99.99
2018-07-12T06:31:31.027Z,99.99
2018-07-12T06:32:30.931Z,99.99
2018-07-12T06:33:30.870Z,99.99
2018-07-12T06:34:30.749Z,99.99
2018-07-12T06:35:30.659Z,99.99
2018-07-12T06:36:30.569Z,99.99
2018-07-12T06:37:30.578Z,99.99
2018-07-12T06:38:30.421Z,99.99
2018-07-12T06:39:30.301Z,99.99
2018-07-12T06:40:30.210Z,99.99
2018-07-12T06:41:30.122Z,99.99
2018-07-12T06:42:30.041Z,99.99
2018-07-12T06:43:29.975Z,99.99
2018-07-12T06:44:29.957Z,99.99
2018-07-12T06:45:29.771Z,99.99
2018-07-12T06:46:29.673Z,99.99
2018-07-12T06:47:29.584Z,99.99
2018-07-12T06:48:29.531Z,99.99
2018-07-12T06:49:29.408Z,99.99
2018-07-12T06:50:29.317Z,99.99
2018-07-12T06:51:29.314Z,99.99
2018-07-12T06:52:29.134Z,99.99
2018-07-12T06:53:29.046Z,99.99
2018-07-12T06:54:28.985Z,99.99
2018-07-12T06:55:28.865Z,99.99
2018-07-12T06:56:28.779Z,99.99
2018-07-12T06:57:28.686Z,99.99
2018-07-12T06:58:28.669Z,99.99
2018-07-12T06:59:28.536Z,99.99
2018-07-12T07:00:28.418Z,99.99
2018-07-12T07:01:28.329Z,99.99
2018-07-12T07:02:28.249Z,99.99
2018-07-12T07:03:28.153Z,99.99
2018-07-12T07:04:28.091Z,99.99
2018-07-12T07:05:28.060Z,99.99
2018-07-12T07:06:27.879Z,99.99
2018-07-12T07:07:27.793Z,99.99
2018-07-12T07:08:27.702Z,99.99
2018-07-12T07:09:27.643Z,99.99
2018-07-12T07:10:27.524Z,99.99
2018-07-12T07:11:27.437Z,99.99
2018-07-12T07:12:27.346Z,99.99
2018-07-12T07:13:27.257Z,99.99
2018-07-12T07:14:27.201Z,99.99
2018-07-12T07:15:27.077Z,99.99
2018-07-12T07:16:26.989Z,99.99
2018-07-12T07:17:26.900Z,99.99
2018-07-12T07:18:26.809Z,99.99
2018-07-12T07:19:26.748Z,99.99
2018-07-12T07:20:26.634Z,99.99
2018-07-12T07:21:26.543Z,99.99
2018-07-12T07:22:26.452Z,99.99
2018-07-12T07:23:26.363Z,99.99
2018-07-12T07:24:26.307Z,99.99
2018-07-12T07:25:26.187Z,99.99
2018-07-12T07:26:26.098Z,99.99
2018-07-12T07:27:26.008Z,99.99
2018-07-12T07:28:25.916Z,99.99
2018-07-12T07:29:25.866Z,99.99
2018-07-12T07:30:25.751Z,99.99
2018-07-12T07:31:25.653Z,99.99
2018-07-12T07:32:25.575Z,99.99
2018-07-12T07:33:25.521Z,99.99
2018-07-12T07:34:25.425Z,99.99
2018-07-12T07:35:25.295Z,99.99
2018-07-12T07:36:25.208Z,99.99
2018-07-12T07:37:25.118Z,99.99
2018-07-12T07:38:25.029Z,99.99
2018-07-12T07:39:24.976Z,99.99
2018-07-12T07:40:24.855Z,99.99
2018-07-12T07:41:24.769Z,99.99
2018-07-12T07:42:24.675Z,99.99
2018-07-12T07:43:24.589Z,99.99
2018-07-12T07:44:24.536Z,99.99
2018-07-12T07:45:24.411Z,99.99
2018-07-12T07:46:24.325Z,99.99
2018-07-12T07:47:24.237Z,99.99
2018-07-12T07:48:24.149Z,99.99
2018-07-12T07:49:24.133Z,99.99
2018-07-12T07:50:23.973Z,99.99
2018-07-12T07:51:23.898Z,99.99
2018-07-12T07:52:23.799Z,99.99
2018-07-12T07:53:23.711Z,99.99
2018-07-12T07:54:23.653Z,99.99
2018-07-12T07:55:23.540Z,99.99
2018-07-12T07:56:23.448Z,99.99
2018-07-12T07:57:23.363Z,99.99
2018-07-12T07:58:23.272Z,99.99
2018-07-12T07:59:23.217Z,99.99
2018-07-12T08:00:23.098Z,99.99
2018-07-12T08:01:23.012Z,99.99
2018-07-12T08:02:22.923Z,99.99
2018-07-12T08:03:22.852Z,99.99
2018-07-12T08:04:22.782Z,99.99
2018-07-12T08:05:22.661Z,99.99
2018-07-12T08:06:22.570Z,99.99
2018-07-12T08:07:22.485Z,99.99
2018-07-12T08:08:22.399Z,99.99
2018-07-12T08:09:22.364Z,99.99
2018-07-12T08:10:22.221Z,99.99
2018-07-12T08:11:22.131Z,99.99
2018-07-12T08:12:22.047Z,99.99
2018-07-12T08:13:21.959Z,99.99
2018-07-12T08:14:21.901Z,99.99
2018-07-12T08:15:21.788Z,99.99
2018-07-12T08:16:21.733Z,99.99
2018-07-12T08:17:21.605Z,99.99
2018-07-12T08:18:21.518Z,99.99
2018-07-12T08:19:21.431Z,99.99
2018-07-12T08:20:21.371Z,99.99
2018-07-12T08:21:21.256Z,99.99
2018-07-12T08:22:21.163Z,99.99
2018-07-12T08:23:21.075Z,99.99
2018-07-12T08:24:20.991Z,99.99
2018-07-12T08:25:20.935Z,99.99
2018-07-12T08:26:20.811Z,99.99
2018-07-12T08:27:20.726Z,99.99
2018-07-12T08:28:20.635Z,99.99
2018-07-12T08:29:20.550Z,99.99
2018-07-12T08:30:20.489Z,99.99
2018-07-12T08:31:20.490Z,99.99
2018-07-12T08:32:20.285Z,99.99
2018-07-12T08:33:20.227Z,99.99
2018-07-12T08:34:20.127Z,99.99
2018-07-12T08:35:20.050Z,99.99
2018-07-12T08:36:20.316Z,99.99
2018-07-12T08:37:19.848Z,99.99
2018-07-12T08:38:19.758Z,99.99
2018-07-12T08:39:19.670Z,99.99
2018-07-12T08:40:19.613Z,99.99
2018-07-12T08:41:19.503Z,99.99
2018-07-12T08:42:19.441Z,99.99
2018-07-12T08:43:19.409Z,99.99
2018-07-12T08:44:19.241Z,99.99
2018-07-12T08:45:19.178Z,99.99
2018-07-12T08:46:19.162Z,99.99
2018-07-12T08:47:18.973Z,99.99
2018-07-12T08:48:18.906Z,99.99
2018-07-12T08:49:18.797Z,99.99
2018-07-12T08:50:18.840Z,99.99
2018-07-12T08:51:18.621Z,99.99
2018-07-12T08:52:18.536Z,99.99
2018-07-12T08:53:18.447Z,99.99
2018-07-12T08:54:18.371Z,99.99
2018-07-12T08:55:18.304Z,99.99
2018-07-12T08:56:18.187Z,99.99
2018-07-12T08:57:18.192Z,99.99
2018-07-12T08:58:18.010Z,99.99
2018-07-12T08:59:17.921Z,99.99
2018-07-12T09:00:17.870Z,99.99
2018-07-12T09:01:17.750Z,99.99
2018-07-12T09:02:17.663Z,99.99
2018-07-12T09:03:17.575Z,99.99
2018-07-12T09:04:17.592Z,99.99
2018-07-12T09:05:17.430Z,99.99
2018-07-12T09:06:17.312Z,99.99
2018-07-12T09:07:17.225Z,99.99
2018-07-12T09:08:17.138Z,99.99
2018-07-12T09:09:17.053Z,99.99
2018-07-12T09:10:16.994Z,99.99
2018-07-12T09:11:16.963Z,99.99
2018-07-12T09:12:16.791Z,99.99
2018-07-12T09:13:16.703Z,99.99
2018-07-12T09:14:16.616Z,99.99
2018-07-12T09:15:16.563Z,99.99
2018-07-12T09:16:16.451Z,99.99
2018-07-12T09:17:16.362Z,99.99
2018-07-12T09:18:16.385Z,99.99
2018-07-12T09:19:16.189Z,99.99
2018-07-12T09:20:16.135Z,99.99
2018-07-12T09:21:16.014Z,99.99
2018-07-12T09:22:15.928Z,99.99
2018-07-12T09:23:15.874Z,99.99
2018-07-12T09:24:15.765Z,99.99
2018-07-12T09:25:15.809Z,99.99
2018-07-12T09:26:15.581Z,99.99
2018-07-12T09:27:15.497Z,99.99
2018-07-12T09:28:15.411Z,99.99
2018-07-12T09:29:15.378Z,99.99
2018-07-12T09:30:15.268Z,99.92
2018-07-12T09:31:15.150Z,99.99
2018-07-12T09:32:15.162Z,99.99
2018-07-12T09:33:14.981Z,99.99
2018-07-12T09:34:14.895Z,99.99
2018-07-12T09:35:14.841Z,99.99
2018-07-12T09:36:14.722Z,99.99
2018-07-12T09:37:14.640Z,99.99
2018-07-12T09:38:14.553Z,99.99
2018-07-12T09:39:14.465Z,99.99
2018-07-12T09:40:14.410Z,99.99
2018-07-12T09:41:14.294Z,99.99
2018-07-12T09:42:14.210Z,99.99
2018-07-12T09:43:14.122Z,99.99
2018-07-12T09:44:14.034Z,99.99
2018-07-12T09:45:13.984Z,99.99
2018-07-12T09:46:13.866Z,99.99
2018-07-12T09:47:13.780Z,99.30
2018-07-12T09:48:13.717Z,98.77
2018-07-12T09:49:13.697Z,98.10
2018-07-12T09:50:13.568Z,99.01
2018-07-12T09:51:13.433Z,99.16
2018-07-12T09:52:13.348Z,98.53
2018-07-12T09:53:13.263Z,99.88
2018-07-12T09:54:13.176Z,98.96
2018-07-12T09:55:13.092Z,99.83
2018-07-12T09:56:13.084Z,99.11
2018-07-12T09:57:12.921Z,99.11
2018-07-12T09:58:12.840Z,98.53
2018-07-12T09:59:12.748Z,98.77
2018-07-12T10:00:12.668Z,97.52
2018-07-12T10:01:12.684Z,95.79
2018-07-12T10:02:12.493Z,97.19
2018-07-12T10:03:12.404Z,96.85
2018-07-12T10:04:12.321Z,95.40
2018-07-12T10:05:12.240Z,94.87
2018-07-12T10:06:12.180Z,92.85
2018-07-12T10:07:12.065Z,91.12
2018-07-12T10:08:11.984Z,91.69
2018-07-12T10:09:11.897Z,92.80
2018-07-12T10:10:11.813Z,93.87
2018-07-12T10:11:11.760Z,94.15
2018-07-12T10:12:11.654Z,94.54
2018-07-12T10:13:11.557Z,96.75
2018-07-12T10:14:11.473Z,94.97
2018-07-12T10:15:11.393Z,96.70
2018-07-12T10:16:11.334Z,97.24
2018-07-12T10:17:11.222Z,98.14
2018-07-12T10:18:11.135Z,99.78
2018-07-12T10:19:11.047Z,99.11
2018-07-12T10:20:10.969Z,99.25
2018-07-12T10:21:10.913Z,98.86
2018-07-12T10:22:10.796Z,99.99
2018-07-12T10:23:10.712Z,99.99
2018-07-12T10:24:10.626Z,99.99
2018-07-12T10:25:10.541Z,99.99
2018-07-12T10:26:10.487Z,99.99
2018-07-12T10:27:10.375Z,99.99
2018-07-12T10:28:10.287Z,99.99
2018-07-12T10:29:10.202Z,99.99
2018-07-12T10:30:10.117Z,99.99
2018-07-12T10:31:10.070Z,99.54
2018-07-12T10:32:09.947Z,99.83
2018-07-12T10:33:09.862Z,99.99
2018-07-12T10:34:09.779Z,99.99
2018-07-12T10:35:09.689Z,99.99
2018-07-12T10:36:09.638Z,99.99
2018-07-12T10:37:09.523Z,99.99
2018-07-12T10:38:09.432Z,99.83
2018-07-12T10:39:09.347Z,99.99
2018-07-12T10:40:09.272Z,99.99
2018-07-12T10:41:09.215Z,99.99
2018-07-12T10:42:09.094Z,98.68
2018-07-12T10:43:09.010Z,98.72
2018-07-12T10:44:08.920Z,98.86
2018-07-12T10:45:08.838Z,99.99
2018-07-12T10:46:08.780Z,99.83
2018-07-12T10:47:08.662Z,99.30
2018-07-12T10:48:08.579Z,99.99
2018-07-12T10:49:08.493Z,99.99
2018-07-12T10:50:08.411Z,99.99
2018-07-12T10:51:08.355Z,99.99
2018-07-12T10:52:08.236Z,99.99
2018-07-12T10:53:08.150Z,99.99
2018-07-12T10:54:08.064Z,99.99
2018-07-12T10:55:08.083Z,99.99
2018-07-12T10:56:07.923Z,99.99
2018-07-12T10:57:07.805Z,99.99
2018-07-12T10:58:07.716Z,99.99
2018-07-12T10:59:07.633Z,99.99
2018-07-12T11:00:07.543Z,99.99
2018-07-12T11:01:07.494Z,99.99
2018-07-12T11:02:07.462Z,99.99
2018-07-12T11:03:07.285Z,99.99
2018-07-12T11:04:07.197Z,99.99
2018-07-12T11:05:07.123Z,99.99
2018-07-12T11:06:07.061Z,99.99
2018-07-12T11:07:06.938Z,99.99
2018-07-12T11:08:06.851Z,99.99
2018-07-12T11:09:06.874Z,99.99
2018-07-12T11:10:06.675Z,99.99
2018-07-12T11:11:08.047Z,99.99
2018-07-12T11:12:06.505Z,99.99
2018-07-12T11:13:06.414Z,99.99
2018-07-12T11:14:06.326Z,99.99
2018-07-12T11:15:06.239Z,99.99
2018-07-12T11:16:06.245Z,99.99
2018-07-12T11:17:06.097Z,99.99
2018-07-12T11:18:05.996Z,99.99
2018-07-12T11:19:05.887Z,99.99
2018-07-12T11:20:05.806Z,99.99
2018-07-12T11:21:05.729Z,99.99
2018-07-12T11:22:05.656Z,99.99
2018-07-12T11:23:05.632Z,99.99
2018-07-12T11:24:05.454Z,99.99
2018-07-12T11:25:05.368Z,99.99
2018-07-12T11:26:05.280Z,99.99
2018-07-12T11:27:05.221Z,99.99
2018-07-12T11:28:05.152Z,99.99
2018-07-12T11:29:05.017Z,99.99
2018-07-12T11:30:05.025Z,99.99
2018-07-12T11:31:04.846Z,99.99
2018-07-12T11:32:04.789Z,99.99
2018-07-12T11:33:04.672Z,99.99
2018-07-12T11:34:04.580Z,99.99
2018-07-12T11:35:04.497Z,99.99
2018-07-12T11:36:04.409Z,99.99
2018-07-12T11:37:04.516Z,99.99
2018-07-12T11:38:04.233Z,99.99
2018-07-12T11:39:04.149Z,99.99
2018-07-12T11:40:04.059Z,99.99
2018-07-12T11:41:03.974Z,99.99
2018-07-12T11:42:03.917Z,99.99
2018-07-12T11:43:03.804Z,99.99
2018-07-12T11:44:03.808Z,99.99
2018-07-12T11:45:03.630Z,99.99
2018-07-12T11:46:03.539Z,99.99
2018-07-12T11:47:03.484Z,99.99
2018-07-12T11:48:03.371Z,99.99
2018-07-12T11:49:03.277Z,99.99
2018-07-12T11:50:03.190Z,99.99
2018-07-12T11:51:03.205Z,99.99
2018-07-12T11:52:03.052Z,99.99
2018-07-12T11:53:02.935Z,99.99
2018-07-12T11:54:02.846Z,99.99
2018-07-12T11:55:02.761Z,99.99
2018-07-12T11:56:02.673Z,99.99
2018-07-12T11:57:02.620Z,99.99
2018-07-12T11:58:02.592Z,99.99
2018-07-12T11:59:02.415Z,99.99
2018-07-12T12:00:02.329Z,99.99
2018-07-12T12:01:02.244Z,99.99
2018-07-12T12:02:02.247Z,99.99
2018-07-12T12:03:02.070Z,99.99
2018-07-12T12:04:01.981Z,99.99
2018-07-12T12:05:01.984Z,99.99
2018-07-12T12:06:01.811Z,99.99
2018-07-12T12:07:01.774Z,99.99
2018-07-12T12:08:01.636Z,99.99
2018-07-12T12:09:01.553Z,99.99
2018-07-12T12:10:01.463Z,99.68
2018-07-12T12:11:01.388Z,99.99
2018-07-12T12:12:01.395Z,99.99
2018-07-12T12:13:01.291Z,99.99
2018-07-12T12:14:01.121Z,99.35
2018-07-12T12:15:01.034Z,98.96
2018-07-12T12:16:00.949Z,98.58
2018-07-12T12:17:00.891Z,98.05
2018-07-12T12:18:00.776Z,98.77
2018-07-12T12:19:00.783Z,98.72
2018-07-12T12:20:00.607Z,99.98
2018-07-12T12:21:00.519Z,99.99
2018-07-12T12:22:00.464Z,99.11
2018-07-12T12:23:00.358Z,98.29
2018-07-12T12:24:00.262Z,98.77
2018-07-12T12:25:00.174Z,99.99
2018-07-12T12:26:00.095Z,99.99
2018-07-12T12:27:00.035Z,99.99
2018-07-12T12:27:59.918Z,99.68
2018-07-12T12:28:59.835Z,99.64
2018-07-12T12:29:59.748Z,99.99
2018-07-12T12:30:59.664Z,99.99
2018-07-12T12:31:59.610Z,99.21
2018-07-12T12:32:59.490Z,99.93
2018-07-12T12:33:59.407Z,98.39
2018-07-12T12:34:59.334Z,96.51
2018-07-12T12:35:59.234Z,94.97
2018-07-12T12:36:59.182Z,94.78
2018-07-12T12:37:59.065Z,96.70
2018-07-12T12:38:58.980Z,96.51
2018-07-12T12:39:58.896Z,95.64
2018-07-12T12:40:58.807Z,95.89
2018-07-12T12:41:58.782Z,95.40
2018-07-12T12:42:58.636Z,95.69
2018-07-12T12:43:58.555Z,93.72
2018-07-12T12:44:58.469Z,96.61
2018-07-12T12:45:58.386Z,96.85
2018-07-12T12:46:58.301Z,96.66
2018-07-12T12:47:58.246Z,98.14
2018-07-12T12:48:58.132Z,99.01
2018-07-12T12:49:58.046Z,98.54
2018-07-12T12:50:58.023Z,98.34